Terminal Aerodrome Forecast
Issued by NWS Cleveland, OH

Home | Current Version | Previous Version | Graphics & Text | Print | Product List | Glossary Off
Versions: 1 2 3 4 5 6 7 8 9 10 11 12

917
FTUS41 KCLE 222323
TAFCAK
TAF
KCAK 222323Z 2300/2324 16008KT P6SM BKN200
     FM231300 16012KT P6SM BKN050
     FM231600 15014G22KT P6SM VCSH SCT010 BKN025
     FM232000 16015G25KT 4SM -RA OVC005=

USA.gov is the U.S. government's official web portal to all federal, state and local government web resources and services.